CCL2 weather

Candle Lake Airpark
Candle Lake, Saskatchewan, Canada

Public forecast

Using degrees Celsius for public forecast. Weather courtesy of forecast.io.

METAR (pilot weather report)

Closest report is Prince Albert Glass Field, 35.7 nm (66.2 km) SSW. Retrieved 2019/05/20 17:00 UTC (55 minutes ago):

CYPA 201700Z 15005KT 110V220 15SM FEW060 SCT250 16/01 A3019 RMK CU2CI1 SLP236 DENSITY ALT 1600FT

TAF (pilot weather forecast)

Closest forecast is Prince Albert Glass Field, 35.7 nm (66.2 km) SSW. Retrieved 2019/05/20 13:42 UTC (4 hours ago):

TAF CYPA 201238Z 2013/2101 VRB03KT P6SM FEW250 BECMG 2017/2019 13010KT FM202200 14012KT P6SM BKN080 RMK NXT FCST BY 201900Z